createdAt,value
2022-11-24T00:00:06.806Z,99450.38
2022-11-24T00:02:55.050Z,99448.75
2022-11-24T00:05:24.012Z,99451.76
2022-11-24T00:07:52.313Z,99451.91
2022-11-24T00:10:20.643Z,99455.69
2022-11-24T00:12:48.926Z,99455.70
2022-11-24T00:15:17.190Z,99455.23
2022-11-24T00:17:45.549Z,99458.81
2022-11-24T00:20:13.814Z,99462.02
2022-11-24T00:22:42.349Z,99459.68
2022-11-24T00:25:10.626Z,99459.75
2022-11-24T00:27:38.817Z,99461.33
2022-11-24T00:30:07.596Z,99459.46
2022-11-24T00:32:36.090Z,99459.71
2022-11-24T00:35:04.865Z,99462.08
2022-11-24T00:37:33.071Z,99460.54
2022-11-24T00:40:01.338Z,99450.66
2022-11-24T00:42:29.882Z,99460.52
2022-11-24T00:44:58.332Z,99464.95
2022-11-24T00:47:29.092Z,99470.13
2022-11-24T00:49:57.331Z,99466.95
2022-11-24T00:52:25.527Z,99466.84
2022-11-24T00:54:53.915Z,99467.03
2022-11-24T00:57:22.257Z,99466.02
2022-11-24T00:59:50.601Z,99464.46
2022-11-24T01:02:18.749Z,99459.41
2022-11-24T01:04:48.468Z,99459.94
2022-11-24T01:07:16.361Z,99458.98
2022-11-24T01:09:46.903Z,99463.89
2022-11-24T01:12:15.572Z,99461.02
2022-11-24T01:14:44.186Z,99460.44
2022-11-24T01:17:12.350Z,99468.44
2022-11-24T01:19:43.705Z,99465.84
2022-11-24T01:22:13.812Z,99465.77
2022-11-24T01:24:42.368Z,99467.14
2022-11-24T01:27:13.885Z,99464.67
2022-11-24T01:29:43.011Z,99462.05
2022-11-24T01:32:11.193Z,99467.52
2022-11-24T01:34:39.455Z,99472.72
2022-11-24T01:37:07.602Z,99472.90
2022-11-24T01:39:35.960Z,99474.45
2022-11-24T01:42:04.556Z,99471.99
2022-11-24T01:44:33.183Z,99470.73
2022-11-24T01:47:19.987Z,99476.38
2022-11-24T01:49:56.138Z,99475.33
2022-11-24T01:52:47.446Z,99475.98
2022-11-24T01:55:21.671Z,99475.88
2022-11-24T01:57:58.689Z,99477.77
2022-11-24T02:00:27.041Z,99478.58
2022-11-24T02:02:56.477Z,99477.35
2022-11-24T02:05:38.479Z,99480.39
2022-11-24T02:08:13.206Z,99481.52
2022-11-24T02:10:43.024Z,99473.80
2022-11-24T02:13:13.390Z,99467.92
2022-11-24T02:15:42.273Z,99472.83
2022-11-24T02:18:10.739Z,99474.91
2022-11-24T02:20:39.121Z,99474.73
2022-11-24T02:23:38.047Z,99477.68
2022-11-24T02:26:37.306Z,99477.68
2022-11-24T02:29:05.386Z,99474.36
2022-11-24T02:31:35.121Z,99473.50
2022-11-24T02:34:03.645Z,99474.14
2022-11-24T02:36:31.849Z,99470.71
2022-11-24T02:39:00.070Z,99468.52
2022-11-24T02:41:29.446Z,99469.38
2022-11-24T02:44:02.059Z,99466.27
2022-11-24T02:46:30.530Z,99464.84
2022-11-24T02:48:58.788Z,99469.83
2022-11-24T02:51:27.002Z,99470.67
2022-11-24T02:53:55.369Z,99475.15
2022-11-24T02:56:23.577Z,99475.48
2022-11-24T02:58:52.001Z,99476.85
2022-11-24T03:01:20.519Z,99480.63
2022-11-24T03:03:48.907Z,99478.95
2022-11-24T03:06:17.132Z,99486.66
2022-11-24T03:08:45.558Z,99490.13
2022-11-24T03:11:13.760Z,99493.75
2022-11-24T03:13:42.060Z,99498.13
2022-11-24T03:16:10.729Z,99495.61
2022-11-24T03:18:39.406Z,99499.60
2022-11-24T03:21:10.783Z,99499.82
2022-11-24T03:23:39.195Z,99501.91
2022-11-24T03:26:13.108Z,99506.41
2022-11-24T03:28:41.771Z,99509.13
2022-11-24T03:31:10.957Z,99503.61
2022-11-24T03:33:39.895Z,99501.22
2022-11-24T03:36:08.699Z,99505.83
2022-11-24T03:38:36.960Z,99505.73
2022-11-24T03:41:05.296Z,99509.76
2022-11-24T03:43:34.524Z,99511.55
2022-11-24T03:46:05.064Z,99517.21
2022-11-24T03:48:33.397Z,99518.52
2022-11-24T03:51:03.510Z,99520.16
2022-11-24T03:53:34.140Z,99516.59
2022-11-24T03:56:03.076Z,99517.83
2022-11-24T03:58:31.647Z,99506.34
2022-11-24T04:01:00.024Z,99512.95
2022-11-24T04:03:28.346Z,99510.66
2022-11-24T04:05:56.722Z,99508.10
2022-11-24T04:08:24.992Z,99508.14
2022-11-24T04:10:54.761Z,99500.70
2022-11-24T04:13:25.021Z,99509.16
2022-11-24T04:15:53.807Z,99509.52
2022-11-24T04:18:22.377Z,99509.95
2022-11-24T04:20:51.688Z,99506.49
2022-11-24T04:23:20.418Z,99510.19
2022-11-24T04:25:49.105Z,99509.42
2022-11-24T04:28:17.887Z,99507.32
2022-11-24T04:31:05.737Z,99505.05
2022-11-24T04:33:36.012Z,99507.02
2022-11-24T04:36:09.851Z,99510.16
2022-11-24T04:39:19.899Z,99516.27
2022-11-24T04:41:28.250Z,99521.80
2022-11-24T04:44:01.048Z,99522.66
2022-11-24T04:46:40.020Z,99528.05
2022-11-24T04:49:13.488Z,99526.95
2022-11-24T04:51:49.203Z,99535.69
2022-11-24T04:54:19.166Z,99540.60
2022-11-24T04:56:58.016Z,99544.23
2022-11-24T04:59:26.853Z,99548.25
2022-11-24T05:01:59.786Z,99553.42
2022-11-24T05:04:34.929Z,99560.10
2022-11-24T05:07:21.869Z,99564.02
2022-11-24T05:10:13.300Z,99566.60
2022-11-24T05:12:49.953Z,99571.14
2022-11-24T05:15:22.133Z,99578.05
2022-11-24T05:17:51.622Z,99578.73
2022-11-24T05:20:22.887Z,99584.55
2022-11-24T05:22:51.844Z,99585.37
2022-11-24T05:25:20.751Z,99582.95
2022-11-24T05:27:48.915Z,99581.71
2022-11-24T05:30:18.070Z,99582.41
2022-11-24T05:32:49.857Z,99580.73
2022-11-24T05:35:19.162Z,99581.14
2022-11-24T05:37:49.429Z,99578.54
2022-11-24T05:40:19.632Z,99578.86
2022-11-24T05:42:51.915Z,99578.91
2022-11-24T05:45:29.576Z,99582.57
2022-11-24T05:48:15.783Z,99582.23
2022-11-24T05:50:44.412Z,99583.01
2022-11-24T05:53:14.277Z,99582.59
2022-11-24T05:55:43.693Z,99584.17
2022-11-24T05:58:13.138Z,99587.61
2022-11-24T06:00:46.463Z,99592.77
2022-11-24T06:03:15.384Z,99592.09
2022-11-24T06:05:47.810Z,99596.23
2022-11-24T06:08:20.930Z,99600.88
2022-11-24T06:10:50.733Z,99604.77
2022-11-24T06:13:20.772Z,99606.17
2022-11-24T06:15:50.822Z,99616.08
2022-11-24T06:18:19.637Z,99618.29
2022-11-24T06:21:09.221Z,99622.73
2022-11-24T06:23:41.006Z,99625.25
2022-11-24T06:26:09.804Z,99630.70
2022-11-24T06:28:39.529Z,99631.86
2022-11-24T06:31:08.191Z,99638.36
2022-11-24T06:33:41.155Z,99640.88
2022-11-24T06:36:13.266Z,99645.32
2022-11-24T06:38:41.547Z,99655.88
2022-11-24T06:41:15.530Z,99656.81
2022-11-24T06:43:45.116Z,99662.58
2022-11-24T06:46:21.357Z,99668.19
2022-11-24T06:48:53.953Z,99671.46
2022-11-24T06:51:21.818Z,99677.77
2022-11-24T06:53:49.752Z,99681.72
2022-11-24T06:56:22.445Z,99687.27
2022-11-24T06:58:52.563Z,99693.53
2022-11-24T07:01:24.271Z,99697.30
2022-11-24T07:03:54.434Z,99694.14
2022-11-24T07:06:24.101Z,99705.23
2022-11-24T07:08:52.752Z,99704.70
2022-11-24T07:11:22.853Z,99708.91
2022-11-24T07:13:59.638Z,99709.16
2022-11-24T07:16:28.700Z,99708.94
2022-11-24T07:18:57.503Z,99710.89
2022-11-24T07:21:27.764Z,99717.83
2022-11-24T07:24:01.732Z,99714.95
2022-11-24T07:26:39.346Z,99718.87
2022-11-24T07:29:08.178Z,99718.40
2022-11-24T07:31:54.886Z,99720.01
2022-11-24T07:34:25.000Z,99716.77
2022-11-24T07:37:05.472Z,99713.88
2022-11-24T07:39:37.260Z,99717.83
2022-11-24T07:42:18.604Z,99716.46
2022-11-24T07:45:35.750Z,99717.55
2022-11-24T07:48:15.450Z,99720.34
2022-11-24T07:50:44.554Z,99723.34
2022-11-24T07:53:12.837Z,99720.79
2022-11-24T07:55:41.613Z,99719.18
2022-11-24T07:58:09.801Z,99711.65
2022-11-24T08:00:43.630Z,99712.52
2022-11-24T08:03:13.058Z,99710.39
2022-11-24T08:06:00.680Z,99709.98
2022-11-24T08:08:33.430Z,99705.16
2022-11-24T08:11:06.336Z,99708.14
2022-11-24T08:13:37.864Z,99710.86
2022-11-24T08:16:07.647Z,99708.76
2022-11-24T08:18:38.769Z,99710.74
2022-11-24T08:21:07.491Z,99716.29
2022-11-24T08:23:35.383Z,99722.92
2022-11-24T08:26:07.275Z,99725.48
2022-11-24T08:28:36.527Z,99728.75
2022-11-24T08:31:16.204Z,99737.23
2022-11-24T08:33:47.033Z,99744.01
2022-11-24T08:36:22.587Z,99748.34
2022-11-24T08:38:56.589Z,99748.06
2022-11-24T08:41:29.163Z,99747.70
2022-11-24T08:43:59.033Z,99749.45
2022-11-24T08:46:27.070Z,99752.23
2022-11-24T08:48:56.221Z,99753.60
2022-11-24T08:51:26.322Z,99751.93
2022-11-24T08:53:56.878Z,99755.80
2022-11-24T08:56:29.686Z,99757.57
2022-11-24T08:59:00.811Z,99762.39
2022-11-24T09:01:33.035Z,99762.08
2022-11-24T09:04:02.124Z,99764.39
2022-11-24T09:06:32.785Z,99766.54
2022-11-24T09:09:01.792Z,99765.80
2022-11-24T09:11:31.495Z,99756.96
2022-11-24T09:14:08.383Z,99766.08
2022-11-24T09:16:44.515Z,99769.59
2022-11-24T09:19:12.864Z,99769.41
2022-11-24T09:21:41.606Z,99769.44
2022-11-24T09:24:10.550Z,99771.56
2022-11-24T09:26:43.061Z,99767.30
2022-11-24T09:29:16.419Z,99752.84
2022-11-24T09:31:44.701Z,99766.39
2022-11-24T09:34:17.710Z,99764.70
2022-11-24T09:36:45.810Z,99764.07
2022-11-24T09:39:14.110Z,99768.06
2022-11-24T09:42:02.062Z,99766.13
2022-11-24T09:44:42.488Z,99765.20
2022-11-24T09:47:22.518Z,99767.94
2022-11-24T09:50:04.193Z,99761.86
2022-11-24T09:53:02.135Z,99764.74
2022-11-24T09:55:49.828Z,99763.27
2022-11-24T09:58:48.625Z,99762.02
2022-11-24T10:01:28.715Z,99758.55
2022-11-24T10:04:02.619Z,99760.42
2022-11-24T10:06:47.635Z,99762.58
2022-11-24T10:09:40.850Z,99764.89
2022-11-24T10:12:21.864Z,99765.93
2022-11-24T10:15:19.299Z,99760.48
2022-11-24T10:18:17.261Z,99758.48
2022-11-24T10:21:04.226Z,99761.33
2022-11-24T10:23:47.728Z,99757.55
2022-11-24T10:26:30.064Z,99757.48
2022-11-24T10:28:58.116Z,99757.27
2022-11-24T10:31:41.950Z,99755.89
2022-11-24T10:34:21.171Z,99761.38
2022-11-24T10:37:11.340Z,99763.09
2022-11-24T10:39:51.515Z,99764.82
2022-11-24T10:42:31.757Z,99767.15
2022-11-24T10:45:11.861Z,99768.11
2022-11-24T10:47:43.444Z,99770.14
2022-11-24T10:50:43.868Z,99763.82
2022-11-24T10:53:16.835Z,99769.14
2022-11-24T10:55:57.600Z,99765.18
2022-11-24T10:58:37.315Z,99765.15
2022-11-24T11:01:15.563Z,99762.75
2022-11-24T11:03:56.909Z,99764.60
2022-11-24T11:06:32.188Z,99767.15
2022-11-24T11:09:07.339Z,99768.32
2022-11-24T11:11:36.918Z,99764.70
2022-11-24T11:14:13.260Z,99742.55
2022-11-24T11:16:55.808Z,99764.88
2022-11-24T11:19:49.487Z,99766.67
2022-11-24T11:22:24.252Z,99767.23
2022-11-24T11:25:20.119Z,99770.13
2022-11-24T11:27:49.764Z,99768.54
2022-11-24T11:36:16.900Z,99763.73
2022-11-24T11:38:47.053Z,99758.45
2022-11-24T11:41:22.404Z,99757.84
2022-11-24T11:43:56.812Z,99761.00
2022-11-24T11:46:32.816Z,99765.08
2022-11-24T11:49:00.832Z,99764.44
2022-11-24T11:55:14.699Z,99777.08
2022-11-24T11:58:01.783Z,99767.70
2022-11-24T12:00:33.619Z,99775.69
2022-11-24T12:03:16.688Z,99775.88
2022-11-24T12:05:58.955Z,99776.95
2022-11-24T12:09:18.046Z,99773.22
2022-11-24T12:12:03.759Z,99772.04
2022-11-24T12:14:44.738Z,99765.85
2022-11-24T12:17:53.101Z,99769.52
2022-11-24T12:20:39.889Z,99767.83
2022-11-24T12:23:33.115Z,99774.81
2022-11-24T12:26:15.280Z,99770.52
2022-11-24T12:28:58.388Z,99769.80
2022-11-24T12:31:45.827Z,99775.56
2022-11-24T12:34:39.049Z,99772.73
2022-11-24T12:37:36.344Z,99772.59
2022-11-24T12:40:24.013Z,99763.52
2022-11-24T12:43:24.853Z,99774.81
2022-11-24T12:46:19.785Z,99779.31
2022-11-24T12:49:06.406Z,99779.72
2022-11-24T12:51:46.408Z,99781.89
2022-11-24T12:54:17.670Z,99783.18
2022-11-24T12:57:07.889Z,99786.25
2022-11-24T12:59:56.528Z,99788.92
2022-11-24T13:03:03.674Z,99790.28
2022-11-24T13:05:59.545Z,99790.46
2022-11-24T13:08:28.930Z,99788.91
2022-11-24T13:11:16.609Z,99785.83
2022-11-24T13:13:59.716Z,99788.11
2022-11-24T13:16:38.745Z,99794.61
2022-11-24T13:19:20.178Z,99794.16
2022-11-24T13:21:56.559Z,99798.31
2022-11-24T13:24:36.914Z,99803.77
2022-11-24T13:27:18.895Z,99807.96
2022-11-24T13:29:48.384Z,99807.44
2022-11-24T13:32:19.753Z,99811.04
2022-11-24T13:34:49.765Z,99810.59
2022-11-24T13:37:31.898Z,99808.27
2022-11-24T13:40:23.787Z,99807.61
2022-11-24T13:42:54.369Z,99806.77
2022-11-24T13:45:53.007Z,99814.27
2022-11-24T13:48:21.951Z,99812.33
2022-11-24T13:50:50.594Z,99813.63
2022-11-24T13:53:42.564Z,99813.04
2022-11-24T13:56:13.569Z,99809.98
2022-11-24T13:58:46.253Z,99809.27
2022-11-24T14:01:19.479Z,99807.88
2022-11-24T14:04:28.001Z,99810.82
2022-11-24T14:06:46.361Z,99815.66
2022-11-24T14:09:26.484Z,99822.19
2022-11-24T14:12:12.809Z,99827.76
2022-11-24T14:14:42.034Z,99830.08
2022-11-24T14:17:20.165Z,99828.20
2022-11-24T14:19:50.323Z,99834.29
2022-11-24T14:22:21.669Z,99838.23
2022-11-24T14:24:54.780Z,99841.13
2022-11-24T14:27:29.706Z,99839.13
2022-11-24T14:30:02.252Z,99841.23
2022-11-24T14:32:30.204Z,99843.51
2022-11-24T14:34:58.027Z,99844.07
2022-11-24T14:37:26.069Z,99853.11
2022-11-24T14:39:56.333Z,99855.95
2022-11-24T14:42:25.808Z,99863.63
2022-11-24T14:44:55.824Z,99866.67
2022-11-24T14:47:31.292Z,99868.19
2022-11-24T14:50:22.984Z,99869.19
2022-11-24T14:52:56.650Z,99869.03
2022-11-24T14:55:26.121Z,99868.45
2022-11-24T14:57:56.692Z,99868.95
2022-11-24T15:00:24.792Z,99868.73
2022-11-24T15:03:01.630Z,99870.23
2022-11-24T15:05:51.534Z,99873.95
2022-11-24T15:08:19.865Z,99876.04
2022-11-24T15:10:48.329Z,99878.10
2022-11-24T15:13:22.797Z,99878.98
2022-11-24T15:16:01.811Z,99880.98
2022-11-24T15:18:38.966Z,99885.71
2022-11-24T15:21:07.079Z,99885.27
2022-11-24T15:23:36.254Z,99887.12
2022-11-24T15:26:04.227Z,99894.48
2022-11-24T15:28:33.459Z,99895.30
2022-11-24T15:31:04.157Z,99898.63
2022-11-24T15:33:32.224Z,99900.75
2022-11-24T15:36:00.158Z,99906.10
2022-11-24T15:38:27.922Z,99907.92
2022-11-24T15:41:00.225Z,99913.50
2022-11-24T15:43:38.682Z,99912.34
2022-11-24T15:46:09.015Z,99911.58
2022-11-24T15:48:37.095Z,99915.65
2022-11-24T15:51:13.825Z,99912.20
2022-11-24T15:53:48.071Z,99912.55
2022-11-24T15:56:36.935Z,99915.10
2022-11-24T15:59:04.907Z,99921.92
2022-11-24T16:01:34.449Z,99918.10
2022-11-24T16:04:02.767Z,99923.13
2022-11-24T16:06:31.018Z,99923.67
2022-11-24T16:08:59.164Z,99921.45
2022-11-24T16:11:27.566Z,99926.34
2022-11-24T16:13:55.462Z,99922.84
2022-11-24T16:16:25.212Z,99922.23
2022-11-24T16:18:54.053Z,99926.95
2022-11-24T16:21:21.893Z,99927.61
2022-11-24T16:23:49.647Z,99936.11
2022-11-24T16:26:17.586Z,99937.54
2022-11-24T16:28:46.046Z,99938.75
2022-11-24T16:31:16.091Z,99941.61
2022-11-24T16:33:47.769Z,99943.23
2022-11-24T16:36:15.503Z,99943.02
2022-11-24T16:38:43.758Z,99941.86
2022-11-24T16:41:11.956Z,99944.34
2022-11-24T16:43:40.070Z,99946.48
2022-11-24T16:46:16.069Z,99948.95
2022-11-24T16:48:45.739Z,99951.73
2022-11-24T16:51:14.347Z,99958.48
2022-11-24T16:53:42.971Z,99961.10
2022-11-24T16:56:10.876Z,99966.92
2022-11-24T16:58:40.245Z,99967.06
2022-11-24T17:01:13.885Z,99971.39
2022-11-24T17:03:42.202Z,99972.98
2022-11-24T17:06:12.339Z,99977.66
2022-11-24T17:08:41.423Z,99978.67
2022-11-24T17:11:23.828Z,99974.35
2022-11-24T17:13:52.152Z,99980.42
2022-11-24T17:16:22.284Z,99984.60
2022-11-24T17:18:50.495Z,99986.83
2022-11-24T17:21:23.920Z,99986.85
2022-11-24T17:23:56.893Z,99989.91
2022-11-24T17:26:25.530Z,99995.69
2022-11-24T17:28:54.120Z,99997.55
2022-11-24T17:31:24.432Z,99999.21
2022-11-24T17:33:57.845Z,100000.68
2022-11-24T17:36:27.204Z,100004.53
2022-11-24T17:38:55.055Z,100005.02
2022-11-24T17:41:23.386Z,100009.11
2022-11-24T17:43:58.187Z,100009.48
2022-11-24T17:46:27.913Z,100011.45
2022-11-24T17:48:56.055Z,100009.57
2022-11-24T17:51:25.514Z,100017.70
2022-11-24T17:53:54.217Z,100020.31
2022-11-24T17:56:24.583Z,100022.91
2022-11-24T17:58:58.006Z,100019.63
2022-11-24T18:01:28.609Z,100025.17
2022-11-24T18:03:57.251Z,100021.88
2022-11-24T18:06:25.811Z,100026.70
2022-11-24T18:08:54.217Z,100029.24
2022-11-24T18:11:30.626Z,100030.92
2022-11-24T18:14:02.524Z,100030.55
2022-11-24T18:16:33.072Z,100032.20
2022-11-24T18:19:11.455Z,100036.84
2022-11-24T18:21:41.346Z,100044.69
2022-11-24T18:24:11.273Z,100044.42
2022-11-24T18:26:40.669Z,100045.77
2022-11-24T18:29:09.361Z,100044.54
2022-11-24T18:31:38.062Z,100044.30
2022-11-24T18:34:06.273Z,100041.80
2022-11-24T18:36:34.988Z,100041.44
2022-11-24T18:39:08.907Z,100041.80
2022-11-24T18:41:36.913Z,100044.17
2022-11-24T18:44:08.239Z,100044.27
2022-11-24T18:46:37.932Z,100046.20
2022-11-24T18:49:07.132Z,100045.13
2022-11-24T18:51:36.055Z,100043.95
2022-11-24T18:54:05.868Z,100041.64
2022-11-24T18:56:34.969Z,100035.48
2022-11-24T18:59:02.746Z,100037.02
2022-11-24T19:01:31.000Z,100036.84
2022-11-24T19:04:01.785Z,100041.34
2022-11-24T19:06:33.610Z,100043.27
2022-11-24T19:09:07.893Z,100044.51
2022-11-24T19:11:37.895Z,100045.70
2022-11-24T19:14:07.148Z,100044.78
2022-11-24T19:16:35.135Z,100049.17
2022-11-24T19:19:03.987Z,100049.16
2022-11-24T19:21:33.824Z,100048.48
2022-11-24T19:24:05.422Z,100044.59
2022-11-24T19:26:37.074Z,100044.48
2022-11-24T19:29:06.353Z,100044.99
2022-11-24T19:31:35.153Z,100045.21
2022-11-24T19:34:03.590Z,100049.55
2022-11-24T19:36:33.621Z,100055.65
2022-11-24T19:39:05.095Z,100057.02
2022-11-24T19:41:33.648Z,100062.06
2022-11-24T19:44:01.389Z,100059.83
2022-11-24T19:46:30.298Z,100060.32
2022-11-24T19:49:02.321Z,100069.79
2022-11-24T19:51:35.107Z,100068.77
2022-11-24T19:54:04.846Z,100079.30
2022-11-24T19:56:36.220Z,100083.09
2022-11-24T19:59:06.012Z,100085.67
2022-11-24T20:01:39.881Z,100084.29
2022-11-24T20:04:11.416Z,100086.02
2022-11-24T20:06:41.901Z,100083.98
2022-11-24T20:09:12.271Z,100086.09
2022-11-24T20:11:41.193Z,100089.19
2022-11-24T20:14:12.145Z,100092.94
2022-11-24T20:16:40.685Z,100096.70
2022-11-24T20:19:12.399Z,100101.84
2022-11-24T20:21:41.718Z,100107.02
2022-11-24T20:24:15.715Z,100106.17
2022-11-24T20:26:50.084Z,100110.58
2022-11-24T20:29:19.171Z,100111.40
2022-11-24T20:31:49.934Z,100114.45
2022-11-24T20:34:18.999Z,100115.90
2022-11-24T20:36:47.725Z,100120.54
2022-11-24T20:39:20.175Z,100125.59
2022-11-24T20:41:48.052Z,100119.92
2022-11-24T20:44:17.856Z,100119.80
2022-11-24T20:46:46.694Z,100122.01
2022-11-24T20:49:16.847Z,100123.15
2022-11-24T20:51:47.892Z,100121.85
2022-11-24T20:54:18.148Z,100126.30
2022-11-24T20:56:47.466Z,100126.61
2022-11-24T20:59:18.459Z,100130.38
2022-11-24T21:01:47.906Z,100135.34
2022-11-24T21:04:17.065Z,100134.90
2022-11-24T21:06:45.314Z,100135.12
2022-11-24T21:09:13.105Z,100138.34
2022-11-24T21:11:41.231Z,100134.73
2022-11-24T21:14:10.397Z,100135.28
2022-11-24T21:16:40.169Z,100140.48
2022-11-24T21:19:13.075Z,100143.04
2022-11-24T21:21:42.650Z,100144.66
2022-11-24T21:24:18.408Z,100146.53
2022-11-24T21:26:51.226Z,100147.23
2022-11-24T21:29:22.180Z,100146.55
2022-11-24T21:31:50.132Z,100149.79
2022-11-24T21:34:19.458Z,100150.58
2022-11-24T21:36:47.986Z,100149.81
2022-11-24T21:39:16.310Z,100154.34
2022-11-24T21:41:44.489Z,100151.41
2022-11-24T21:44:13.600Z,100155.27
2022-11-24T21:46:49.704Z,100155.68
2022-11-24T21:49:22.085Z,100159.08
2022-11-24T21:51:55.375Z,100160.27
2022-11-24T21:54:23.946Z,100158.90
2022-11-24T21:56:53.219Z,100163.58
2022-11-24T21:59:21.917Z,100164.42
2022-11-24T22:01:49.939Z,100167.48
2022-11-24T22:04:17.893Z,100163.28
2022-11-24T22:06:45.594Z,100159.42
2022-11-24T22:09:17.699Z,100160.35
2022-11-24T22:11:46.526Z,100161.63
2022-11-24T22:14:14.465Z,100158.28
2022-11-24T22:16:42.292Z,100166.84
2022-11-24T22:19:10.256Z,100166.84
2022-11-24T22:21:38.130Z,100166.87
2022-11-24T22:24:06.080Z,100164.19
2022-11-24T22:26:33.746Z,100165.02
2022-11-24T22:29:01.770Z,100163.52
2022-11-24T22:31:32.221Z,100162.33
2022-11-24T22:34:00.943Z,100167.69
2022-11-24T22:36:30.234Z,100167.50
2022-11-24T22:39:04.090Z,100173.04
2022-11-24T22:41:34.046Z,100174.58
2022-11-24T22:44:02.496Z,100173.70
2022-11-24T22:46:31.310Z,100173.02
2022-11-24T22:49:00.845Z,100181.20
2022-11-24T22:51:32.492Z,100181.61
2022-11-24T22:54:02.638Z,100186.50
2022-11-24T22:56:33.597Z,100189.85
2022-11-24T22:59:02.591Z,100192.45
2022-11-24T23:01:33.853Z,100192.09
2022-11-24T23:04:03.731Z,100189.45
2022-11-24T23:06:33.120Z,100189.80
2022-11-24T23:09:02.712Z,100199.11
2022-11-24T23:11:37.661Z,100199.52
2022-11-24T23:14:08.749Z,100197.04
2022-11-24T23:16:36.802Z,100199.05
2022-11-24T23:19:05.194Z,100200.64
2022-11-24T23:21:36.119Z,100194.92
2022-11-24T23:24:04.547Z,100192.30
2022-11-24T23:26:36.574Z,100190.89
2022-11-24T23:29:05.680Z,100189.66
2022-11-24T23:31:33.994Z,100186.82
2022-11-24T23:34:03.510Z,100193.00
2022-11-24T23:36:32.698Z,100190.44
2022-11-24T23:39:10.992Z,100191.69
2022-11-24T23:41:39.144Z,100195.11
2022-11-24T23:44:07.713Z,100194.44
2022-11-24T23:46:35.577Z,100196.48
2022-11-24T23:49:03.622Z,100198.23
2022-11-24T23:51:32.924Z,100199.02
2022-11-24T23:56:46.776Z,100198.23
2022-11-24T23:59:17.384Z,100193.84
